sensor_id;sensor_type;location;lat;lon;timestamp;P1;durP1;ratioP1;P2;durP2;ratioP2
2966;SDS011;1493;51.496;7.210;2023-04-24T00:01:56;1.80;;;0.80;;
2966;SDS011;1493;51.496;7.210;2023-04-24T00:04:23;3.70;;;1.83;;
2966;SDS011;1493;51.496;7.210;2023-04-24T00:06:51;2.23;;;0.90;;
2966;SDS011;1493;51.496;7.210;2023-04-24T00:09:23;2.03;;;0.90;;
2966;SDS011;1493;51.496;7.210;2023-04-24T00:11:50;2.03;;;1.30;;
2966;SDS011;1493;51.496;7.210;2023-04-24T00:14:19;2.40;;;0.87;;
2966;SDS011;1493;51.496;7.210;2023-04-24T00:16:45;1.63;;;0.90;;
2966;SDS011;1493;51.496;7.210;2023-04-24T00:19:12;2.60;;;0.83;;
2966;SDS011;1493;51.496;7.210;2023-04-24T00:21:39;4.23;;;0.90;;
2966;SDS011;1493;51.496;7.210;2023-04-24T00:24:06;2.73;;;1.20;;
2966;SDS011;1493;51.496;7.210;2023-04-24T00:26:36;1.60;;;1.00;;
2966;SDS011;1493;51.496;7.210;2023-04-24T00:29:02;2.47;;;1.17;;
2966;SDS011;1493;51.496;7.210;2023-04-24T00:31:29;2.23;;;0.90;;
2966;SDS011;1493;51.496;7.210;2023-04-24T00:33:56;2.00;;;0.97;;
2966;SDS011;1493;51.496;7.210;2023-04-24T00:36:23;1.60;;;1.03;;
2966;SDS011;1493;51.496;7.210;2023-04-24T00:38:52;2.53;;;1.77;;
2966;SDS011;1493;51.496;7.210;2023-04-24T00:41:18;1.60;;;0.90;;
2966;SDS011;1493;51.496;7.210;2023-04-24T00:43:47;2.10;;;1.10;;
2966;SDS011;1493;51.496;7.210;2023-04-24T00:46:14;2.23;;;1.13;;
2966;SDS011;1493;51.496;7.210;2023-04-24T00:48:42;2.90;;;1.20;;
2966;SDS011;1493;51.496;7.210;2023-04-24T00:51:09;2.13;;;1.20;;
2966;SDS011;1493;51.496;7.210;2023-04-24T00:53:36;1.70;;;1.13;;
2966;SDS011;1493;51.496;7.210;2023-04-24T00:56:03;2.30;;;0.97;;
2966;SDS011;1493;51.496;7.210;2023-04-24T00:58:31;1.80;;;0.93;;
2966;SDS011;1493;51.496;7.210;2023-04-24T01:00:59;2.30;;;0.90;;
2966;SDS011;1493;51.496;7.210;2023-04-24T01:03:28;2.00;;;1.00;;
2966;SDS011;1493;51.496;7.210;2023-04-24T01:05:57;1.70;;;1.10;;
2966;SDS011;1493;51.496;7.210;2023-04-24T01:08:24;3.13;;;1.10;;
2966;SDS011;1493;51.496;7.210;2023-04-24T01:10:52;2.80;;;1.50;;
2966;SDS011;1493;51.496;7.210;2023-04-24T01:13:19;4.03;;;1.40;;
2966;SDS011;1493;51.496;7.210;2023-04-24T01:15:46;2.83;;;1.63;;
2966;SDS011;1493;51.496;7.210;2023-04-24T01:18:15;2.53;;;1.13;;
2966;SDS011;1493;51.496;7.210;2023-04-24T01:20:42;1.63;;;1.00;;
2966;SDS011;1493;51.496;7.210;2023-04-24T01:23:13;2.87;;;1.40;;
2966;SDS011;1493;51.496;7.210;2023-04-24T01:25:40;2.63;;;1.60;;
2966;SDS011;1493;51.496;7.210;2023-04-24T01:28:07;1.83;;;1.40;;
2966;SDS011;1493;51.496;7.210;2023-04-24T01:30:34;2.93;;;1.90;;
2966;SDS011;1493;51.496;7.210;2023-04-24T01:33:01;2.30;;;1.20;;
2966;SDS011;1493;51.496;7.210;2023-04-24T01:35:28;3.00;;;1.70;;
2966;SDS011;1493;51.496;7.210;2023-04-24T01:37:55;2.60;;;1.40;;
2966;SDS011;1493;51.496;7.210;2023-04-24T01:40:24;3.63;;;1.53;;
2966;SDS011;1493;51.496;7.210;2023-04-24T01:42:50;3.27;;;1.50;;
2966;SDS011;1493;51.496;7.210;2023-04-24T01:45:17;2.40;;;1.53;;
2966;SDS011;1493;51.496;7.210;2023-04-24T01:47:44;4.27;;;1.73;;
2966;SDS011;1493;51.496;7.210;2023-04-24T01:50:11;2.60;;;2.00;;
2966;SDS011;1493;51.496;7.210;2023-04-24T01:52:38;2.67;;;1.63;;
2966;SDS011;1493;51.496;7.210;2023-04-24T01:55:05;4.43;;;1.90;;
2966;SDS011;1493;51.496;7.210;2023-04-24T01:57:34;4.10;;;2.30;;
2966;SDS011;1493;51.496;7.210;2023-04-24T02:00:02;4.53;;;2.00;;
2966;SDS011;1493;51.496;7.210;2023-04-24T02:02:30;4.70;;;2.20;;
2966;SDS011;1493;51.496;7.210;2023-04-24T02:04:57;2.63;;;2.07;;
2966;SDS011;1493;51.496;7.210;2023-04-24T02:07:24;4.80;;;2.20;;
2966;SDS011;1493;51.496;7.210;2023-04-24T02:09:51;6.10;;;2.33;;
2966;SDS011;1493;51.496;7.210;2023-04-24T02:12:18;2.30;;;2.03;;
2966;SDS011;1493;51.496;7.210;2023-04-24T02:14:46;2.70;;;2.37;;
2966;SDS011;1493;51.496;7.210;2023-04-24T02:17:16;7.13;;;2.50;;
2966;SDS011;1493;51.496;7.210;2023-04-24T02:19:44;2.53;;;2.23;;
2966;SDS011;1493;51.496;7.210;2023-04-24T02:22:11;5.93;;;2.17;;
2966;SDS011;1493;51.496;7.210;2023-04-24T02:24:37;6.40;;;3.20;;
2966;SDS011;1493;51.496;7.210;2023-04-24T02:27:05;3.80;;;2.60;;
2966;SDS011;1493;51.496;7.210;2023-04-24T02:29:31;7.47;;;4.23;;
2966;SDS011;1493;51.496;7.210;2023-04-24T02:32:00;4.30;;;3.67;;
2966;SDS011;1493;51.496;7.210;2023-04-24T02:34:26;4.83;;;3.63;;
2966;SDS011;1493;51.496;7.210;2023-04-24T02:36:53;4.50;;;4.10;;
2966;SDS011;1493;51.496;7.210;2023-04-24T02:39:20;4.90;;;4.00;;
2966;SDS011;1493;51.496;7.210;2023-04-24T02:41:47;6.33;;;4.70;;
2966;SDS011;1493;51.496;7.210;2023-04-24T02:44:14;6.53;;;4.67;;
2966;SDS011;1493;51.496;7.210;2023-04-24T02:46:42;6.67;;;4.77;;
2966;SDS011;1493;51.496;7.210;2023-04-24T02:49:10;7.43;;;5.20;;
2966;SDS011;1493;51.496;7.210;2023-04-24T02:51:37;5.77;;;5.10;;
2966;SDS011;1493;51.496;7.210;2023-04-24T02:54:06;6.90;;;5.87;;
2966;SDS011;1493;51.496;7.210;2023-04-24T02:56:33;8.80;;;6.23;;
2966;SDS011;1493;51.496;7.210;2023-04-24T02:59:00;8.43;;;6.03;;
2966;SDS011;1493;51.496;7.210;2023-04-24T03:01:26;10.30;;;6.07;;
2966;SDS011;1493;51.496;7.210;2023-04-24T03:03:53;8.07;;;5.73;;
2966;SDS011;1493;51.496;7.210;2023-04-24T03:06:21;13.07;;;7.50;;
2966;SDS011;1493;51.496;7.210;2023-04-24T03:08:48;9.17;;;6.33;;
2966;SDS011;1493;51.496;7.210;2023-04-24T03:11:15;10.03;;;6.87;;
2966;SDS011;1493;51.496;7.210;2023-04-24T03:13:42;11.60;;;6.47;;
2966;SDS011;1493;51.496;7.210;2023-04-24T03:16:08;11.03;;;6.50;;
2966;SDS011;1493;51.496;7.210;2023-04-24T03:18:35;7.80;;;6.70;;
2966;SDS011;1493;51.496;7.210;2023-04-24T03:21:02;9.70;;;6.67;;
2966;SDS011;1493;51.496;7.210;2023-04-24T03:23:30;7.10;;;6.00;;
2966;SDS011;1493;51.496;7.210;2023-04-24T03:25:57;9.23;;;6.67;;
2966;SDS011;1493;51.496;7.210;2023-04-24T03:28:24;7.57;;;6.13;;
2966;SDS011;1493;51.496;7.210;2023-04-24T03:30:51;7.93;;;6.80;;
2966;SDS011;1493;51.496;7.210;2023-04-24T03:33:18;11.60;;;6.70;;
2966;SDS011;1493;51.496;7.210;2023-04-24T03:35:45;10.40;;;7.30;;
2966;SDS011;1493;51.496;7.210;2023-04-24T03:38:12;12.80;;;7.17;;
2966;SDS011;1493;51.496;7.210;2023-04-24T03:40:40;8.77;;;6.70;;
2966;SDS011;1493;51.496;7.210;2023-04-24T03:43:06;8.97;;;5.80;;
2966;SDS011;1493;51.496;7.210;2023-04-24T03:45:33;10.43;;;6.47;;
2966;SDS011;1493;51.496;7.210;2023-04-24T03:48:00;9.83;;;6.87;;
2966;SDS011;1493;51.496;7.210;2023-04-24T03:50:27;10.37;;;8.37;;
2966;SDS011;1493;51.496;7.210;2023-04-24T03:52:54;8.57;;;6.80;;
2966;SDS011;1493;51.496;7.210;2023-04-24T03:55:21;11.27;;;6.53;;
2966;SDS011;1493;51.496;7.210;2023-04-24T03:57:49;10.30;;;6.90;;
2966;SDS011;1493;51.496;7.210;2023-04-24T04:00:16;9.93;;;7.57;;
2966;SDS011;1493;51.496;7.210;2023-04-24T04:02:43;9.67;;;7.13;;
2966;SDS011;1493;51.496;7.210;2023-04-24T04:05:10;9.93;;;8.50;;
2966;SDS011;1493;51.496;7.210;2023-04-24T04:07:37;7.87;;;6.77;;
2966;SDS011;1493;51.496;7.210;2023-04-24T04:10:04;9.67;;;7.80;;
2966;SDS011;1493;51.496;7.210;2023-04-24T04:12:32;12.40;;;8.10;;
2966;SDS011;1493;51.496;7.210;2023-04-24T04:15:00;13.10;;;8.63;;
2966;SDS011;1493;51.496;7.210;2023-04-24T04:17:27;12.07;;;7.47;;
2966;SDS011;1493;51.496;7.210;2023-04-24T04:19:54;9.77;;;7.23;;
2966;SDS011;1493;51.496;7.210;2023-04-24T04:22:21;8.80;;;7.13;;
2966;SDS011;1493;51.496;7.210;2023-04-24T04:24:48;12.77;;;7.57;;
2966;SDS011;1493;51.496;7.210;2023-04-24T04:27:16;9.50;;;6.67;;
2966;SDS011;1493;51.496;7.210;2023-04-24T04:29:43;11.43;;;8.30;;
2966;SDS011;1493;51.496;7.210;2023-04-24T04:32:12;9.00;;;7.17;;
2966;SDS011;1493;51.496;7.210;2023-04-24T04:34:38;9.90;;;7.07;;
2966;SDS011;1493;51.496;7.210;2023-04-24T04:37:05;8.13;;;6.73;;
2966;SDS011;1493;51.496;7.210;2023-04-24T04:39:32;11.10;;;8.37;;
2966;SDS011;1493;51.496;7.210;2023-04-24T04:41:59;9.73;;;7.00;;
2966;SDS011;1493;51.496;7.210;2023-04-24T04:44:26;9.63;;;8.17;;
2966;SDS011;1493;51.496;7.210;2023-04-24T04:46:53;13.47;;;7.80;;
2966;SDS011;1493;51.496;7.210;2023-04-24T04:49:22;18.60;;;9.83;;
2966;SDS011;1493;51.496;7.210;2023-04-24T04:51:49;11.83;;;7.00;;
2966;SDS011;1493;51.496;7.210;2023-04-24T04:54:17;12.10;;;8.03;;
2966;SDS011;1493;51.496;7.210;2023-04-24T04:56:43;10.77;;;8.13;;
2966;SDS011;1493;51.496;7.210;2023-04-24T04:59:10;8.80;;;7.90;;
2966;SDS011;1493;51.496;7.210;2023-04-24T05:01:38;9.00;;;7.10;;
2966;SDS011;1493;51.496;7.210;2023-04-24T05:04:05;11.03;;;7.40;;
2966;SDS011;1493;51.496;7.210;2023-04-24T05:06:33;13.33;;;7.83;;
2966;SDS011;1493;51.496;7.210;2023-04-24T05:09:00;10.60;;;6.93;;
2966;SDS011;1493;51.496;7.210;2023-04-24T05:11:28;10.80;;;7.20;;
2966;SDS011;1493;51.496;7.210;2023-04-24T05:13:55;12.93;;;7.67;;
2966;SDS011;1493;51.496;7.210;2023-04-24T05:16:22;8.67;;;7.03;;
2966;SDS011;1493;51.496;7.210;2023-04-24T05:18:48;14.23;;;7.27;;
2966;SDS011;1493;51.496;7.210;2023-04-24T05:21:15;6.60;;;5.77;;
2966;SDS011;1493;51.496;7.210;2023-04-24T05:23:44;9.67;;;7.30;;
2966;SDS011;1493;51.496;7.210;2023-04-24T05:26:10;8.50;;;6.93;;
2966;SDS011;1493;51.496;7.210;2023-04-24T05:28:37;7.20;;;6.23;;
2966;SDS011;1493;51.496;7.210;2023-04-24T05:31:04;10.33;;;6.30;;
2966;SDS011;1493;51.496;7.210;2023-04-24T05:33:31;9.03;;;6.60;;
2966;SDS011;1493;51.496;7.210;2023-04-24T05:35:58;7.13;;;5.43;;
2966;SDS011;1493;51.496;7.210;2023-04-24T05:38:25;10.50;;;5.90;;
2966;SDS011;1493;51.496;7.210;2023-04-24T05:40:53;9.67;;;6.17;;
2966;SDS011;1493;51.496;7.210;2023-04-24T05:43:20;7.77;;;6.70;;
2966;SDS011;1493;51.496;7.210;2023-04-24T05:45:47;9.20;;;6.27;;
2966;SDS011;1493;51.496;7.210;2023-04-24T05:48:13;9.17;;;6.57;;
2966;SDS011;1493;51.496;7.210;2023-04-24T05:50:40;8.10;;;6.27;;
2966;SDS011;1493;51.496;7.210;2023-04-24T05:53:08;9.97;;;7.60;;
2966;SDS011;1493;51.496;7.210;2023-04-24T05:55:35;11.30;;;8.07;;
2966;SDS011;1493;51.496;7.210;2023-04-24T05:58:04;8.77;;;7.20;;
2966;SDS011;1493;51.496;7.210;2023-04-24T06:00:31;9.20;;;7.03;;
2966;SDS011;1493;51.496;7.210;2023-04-24T06:02:59;8.97;;;7.43;;
2966;SDS011;1493;51.496;7.210;2023-04-24T06:05:28;10.77;;;7.20;;
2966;SDS011;1493;51.496;7.210;2023-04-24T06:07:55;10.10;;;8.20;;
2966;SDS011;1493;51.496;7.210;2023-04-24T06:10:22;7.90;;;6.97;;
2966;SDS011;1493;51.496;7.210;2023-04-24T06:12:49;8.07;;;7.10;;
2966;SDS011;1493;51.496;7.210;2023-04-24T06:15:17;7.80;;;6.40;;
2966;SDS011;1493;51.496;7.210;2023-04-24T06:17:44;8.50;;;6.20;;
2966;SDS011;1493;51.496;7.210;2023-04-24T06:20:11;9.93;;;6.40;;
2966;SDS011;1493;51.496;7.210;2023-04-24T06:22:38;9.50;;;6.73;;
2966;SDS011;1493;51.496;7.210;2023-04-24T06:25:05;9.93;;;5.97;;
2966;SDS011;1493;51.496;7.210;2023-04-24T06:27:33;10.60;;;5.90;;
2966;SDS011;1493;51.496;7.210;2023-04-24T06:30:00;7.07;;;5.30;;
2966;SDS011;1493;51.496;7.210;2023-04-24T06:32:28;9.13;;;6.27;;
2966;SDS011;1493;51.496;7.210;2023-04-24T06:34:55;10.47;;;6.10;;
2966;SDS011;1493;51.496;7.210;2023-04-24T06:37:22;6.93;;;5.00;;
2966;SDS011;1493;51.496;7.210;2023-04-24T06:39:50;6.73;;;5.23;;
2966;SDS011;1493;51.496;7.210;2023-04-24T06:42:16;8.00;;;5.27;;
2966;SDS011;1493;51.496;7.210;2023-04-24T06:44:45;9.93;;;5.83;;
2966;SDS011;1493;51.496;7.210;2023-04-24T06:47:12;5.80;;;5.20;;
2966;SDS011;1493;51.496;7.210;2023-04-24T06:49:41;5.57;;;4.90;;
2966;SDS011;1493;51.496;7.210;2023-04-24T06:52:08;8.90;;;6.00;;
2966;SDS011;1493;51.496;7.210;2023-04-24T06:54:35;6.40;;;5.13;;
2966;SDS011;1493;51.496;7.210;2023-04-24T06:57:02;7.47;;;5.30;;
2966;SDS011;1493;51.496;7.210;2023-04-24T06:59:28;8.10;;;6.10;;
2966;SDS011;1493;51.496;7.210;2023-04-24T07:01:56;6.10;;;5.27;;
2966;SDS011;1493;51.496;7.210;2023-04-24T07:04:23;6.10;;;5.47;;
2966;SDS011;1493;51.496;7.210;2023-04-24T07:06:51;7.97;;;6.43;;
2966;SDS011;1493;51.496;7.210;2023-04-24T07:09:20;7.37;;;5.40;;
2966;SDS011;1493;51.496;7.210;2023-04-24T07:11:51;9.13;;;6.23;;
2966;SDS011;1493;51.496;7.210;2023-04-24T07:14:21;5.90;;;5.30;;
2966;SDS011;1493;51.496;7.210;2023-04-24T07:16:48;7.60;;;5.13;;
2966;SDS011;1493;51.496;7.210;2023-04-24T07:19:15;7.50;;;5.03;;
2966;SDS011;1493;51.496;7.210;2023-04-24T07:21:42;5.17;;;3.53;;
2966;SDS011;1493;51.496;7.210;2023-04-24T07:24:10;3.23;;;2.93;;
2966;SDS011;1493;51.496;7.210;2023-04-24T07:26:38;3.70;;;3.40;;
2966;SDS011;1493;51.496;7.210;2023-04-24T07:29:05;4.70;;;3.33;;
2966;SDS011;1493;51.496;7.210;2023-04-24T07:31:32;4.50;;;3.40;;
2966;SDS011;1493;51.496;7.210;2023-04-24T07:33:59;4.50;;;2.87;;
2966;SDS011;1493;51.496;7.210;2023-04-24T07:36:25;3.10;;;2.47;;
2966;SDS011;1493;51.496;7.210;2023-04-24T07:38:53;2.80;;;2.30;;
2966;SDS011;1493;51.496;7.210;2023-04-24T07:41:21;3.40;;;2.07;;
2966;SDS011;1493;51.496;7.210;2023-04-24T07:43:49;2.90;;;2.27;;
2966;SDS011;1493;51.496;7.210;2023-04-24T07:46:16;2.90;;;1.93;;
2966;SDS011;1493;51.496;7.210;2023-04-24T07:48:43;2.43;;;1.83;;
2966;SDS011;1493;51.496;7.210;2023-04-24T07:51:11;3.07;;;2.20;;
2966;SDS011;1493;51.496;7.210;2023-04-24T07:53:38;2.87;;;1.70;;
2966;SDS011;1493;51.496;7.210;2023-04-24T07:56:05;2.70;;;1.93;;
2966;SDS011;1493;51.496;7.210;2023-04-24T07:58:33;3.90;;;2.07;;
2966;SDS011;1493;51.496;7.210;2023-04-24T08:01:00;3.80;;;2.20;;
2966;SDS011;1493;51.496;7.210;2023-04-24T08:03:27;2.97;;;1.50;;
2966;SDS011;1493;51.496;7.210;2023-04-24T08:05:54;2.87;;;1.80;;
2966;SDS011;1493;51.496;7.210;2023-04-24T08:08:21;2.43;;;1.43;;
2966;SDS011;1493;51.496;7.210;2023-04-24T08:10:49;1.80;;;1.20;;
2966;SDS011;1493;51.496;7.210;2023-04-24T08:13:16;1.83;;;1.00;;
2966;SDS011;1493;51.496;7.210;2023-04-24T08:15:44;3.20;;;0.90;;
2966;SDS011;1493;51.496;7.210;2023-04-24T08:18:11;1.50;;;0.80;;
2966;SDS011;1493;51.496;7.210;2023-04-24T08:20:38;1.70;;;1.10;;
2966;SDS011;1493;51.496;7.210;2023-04-24T08:23:05;3.20;;;0.70;;
2966;SDS011;1493;51.496;7.210;2023-04-24T08:25:32;1.60;;;1.00;;
2966;SDS011;1493;51.496;7.210;2023-04-24T08:28:00;1.60;;;0.80;;
2966;SDS011;1493;51.496;7.210;2023-04-24T08:30:28;2.73;;;0.80;;
2966;SDS011;1493;51.496;7.210;2023-04-24T08:32:56;2.33;;;0.90;;
2966;SDS011;1493;51.496;7.210;2023-04-24T08:35:23;1.63;;;0.90;;
2966;SDS011;1493;51.496;7.210;2023-04-24T08:37:51;1.70;;;0.80;;
2966;SDS011;1493;51.496;7.210;2023-04-24T08:40:21;3.10;;;0.90;;
2966;SDS011;1493;51.496;7.210;2023-04-24T08:42:53;1.40;;;0.60;;
2966;SDS011;1493;51.496;7.210;2023-04-24T08:45:21;1.80;;;0.90;;
2966;SDS011;1493;51.496;7.210;2023-04-24T08:47:48;1.40;;;0.70;;
2966;SDS011;1493;51.496;7.210;2023-04-24T08:50:16;1.60;;;0.80;;
2966;SDS011;1493;51.496;7.210;2023-04-24T08:52:43;1.60;;;0.90;;
2966;SDS011;1493;51.496;7.210;2023-04-24T08:55:10;1.47;;;0.80;;
2966;SDS011;1493;51.496;7.210;2023-04-24T08:57:37;1.90;;;1.00;;
2966;SDS011;1493;51.496;7.210;2023-04-24T09:00:05;1.60;;;1.07;;
2966;SDS011;1493;51.496;7.210;2023-04-24T09:02:33;1.60;;;1.10;;
2966;SDS011;1493;51.496;7.210;2023-04-24T09:05:00;3.20;;;1.67;;
2966;SDS011;1493;51.496;7.210;2023-04-24T09:07:30;2.13;;;1.50;;
2966;SDS011;1493;51.496;7.210;2023-04-24T09:10:02;2.60;;;1.87;;
2966;SDS011;1493;51.496;7.210;2023-04-24T09:12:29;3.33;;;2.20;;
2966;SDS011;1493;51.496;7.210;2023-04-24T09:14:56;4.57;;;2.40;;
2966;SDS011;1493;51.496;7.210;2023-04-24T09:17:24;3.37;;;2.10;;
2966;SDS011;1493;51.496;7.210;2023-04-24T09:19:53;3.60;;;2.10;;
2966;SDS011;1493;51.496;7.210;2023-04-24T09:22:20;5.27;;;3.90;;
2966;SDS011;1493;51.496;7.210;2023-04-24T09:24:49;3.63;;;3.17;;
2966;SDS011;1493;51.496;7.210;2023-04-24T09:27:28;4.37;;;3.97;;
2966;SDS011;1493;51.496;7.210;2023-04-24T09:29:55;4.73;;;4.07;;
2966;SDS011;1493;51.496;7.210;2023-04-24T09:32:23;3.37;;;3.07;;
2966;SDS011;1493;51.496;7.210;2023-04-24T09:35:04;3.27;;;2.97;;
2966;SDS011;1493;51.496;7.210;2023-04-24T09:37:34;4.93;;;2.87;;
2966;SDS011;1493;51.496;7.210;2023-04-24T09:40:10;3.57;;;2.57;;
2966;SDS011;1493;51.496;7.210;2023-04-24T09:42:38;4.60;;;3.63;;
2966;SDS011;1493;51.496;7.210;2023-04-24T09:45:08;2.50;;;2.30;;
2966;SDS011;1493;51.496;7.210;2023-04-24T09:47:36;3.10;;;2.80;;
2966;SDS011;1493;51.496;7.210;2023-04-24T09:50:09;2.33;;;2.10;;
2966;SDS011;1493;51.496;7.210;2023-04-24T09:52:39;15.83;;;8.37;;
2966;SDS011;1493;51.496;7.210;2023-04-24T09:55:11;6.03;;;2.90;;
2966;SDS011;1493;51.496;7.210;2023-04-24T09:57:49;4.57;;;2.47;;
2966;SDS011;1493;51.496;7.210;2023-04-24T10:00:18;4.73;;;3.10;;
2966;SDS011;1493;51.496;7.210;2023-04-24T10:02:49;3.20;;;2.50;;
2966;SDS011;1493;51.496;7.210;2023-04-24T10:05:17;3.70;;;3.10;;
2966;SDS011;1493;51.496;7.210;2023-04-24T10:07:44;5.70;;;3.13;;
2966;SDS011;1493;51.496;7.210;2023-04-24T10:10:13;3.93;;;3.03;;
2966;SDS011;1493;51.496;7.210;2023-04-24T10:12:40;4.53;;;3.47;;
2966;SDS011;1493;51.496;7.210;2023-04-24T10:15:08;4.53;;;2.93;;
2966;SDS011;1493;51.496;7.210;2023-04-24T10:17:37;6.17;;;4.80;;
2966;SDS011;1493;51.496;7.210;2023-04-24T10:20:05;4.40;;;2.87;;
2966;SDS011;1493;51.496;7.210;2023-04-24T10:22:33;5.70;;;3.00;;
2966;SDS011;1493;51.496;7.210;2023-04-24T10:27:32;4.17;;;3.33;;
2966;SDS011;1493;51.496;7.210;2023-04-24T10:30:00;4.80;;;3.00;;
2966;SDS011;1493;51.496;7.210;2023-04-24T10:32:28;6.00;;;3.50;;
2966;SDS011;1493;51.496;7.210;2023-04-24T10:34:55;5.30;;;3.13;;
2966;SDS011;1493;51.496;7.210;2023-04-24T10:37:22;6.43;;;4.23;;
2966;SDS011;1493;51.496;7.210;2023-04-24T10:39:50;5.50;;;3.70;;
2966;SDS011;1493;51.496;7.210;2023-04-24T10:42:19;5.23;;;3.90;;
2966;SDS011;1493;51.496;7.210;2023-04-24T10:44:48;6.80;;;5.03;;
2966;SDS011;1493;51.496;7.210;2023-04-24T10:47:15;8.03;;;6.80;;
2966;SDS011;1493;51.496;7.210;2023-04-24T10:49:42;7.90;;;5.37;;
2966;SDS011;1493;51.496;7.210;2023-04-24T10:52:09;8.43;;;5.87;;
2966;SDS011;1493;51.496;7.210;2023-04-24T10:54:41;14.00;;;5.67;;
2966;SDS011;1493;51.496;7.210;2023-04-24T10:57:25;10.63;;;5.90;;
2966;SDS011;1493;51.496;7.210;2023-04-24T11:00:16;6.53;;;5.40;;
2966;SDS011;1493;51.496;7.210;2023-04-24T11:02:46;9.30;;;6.43;;
2966;SDS011;1493;51.496;7.210;2023-04-24T11:05:18;10.27;;;5.83;;
2966;SDS011;1493;51.496;7.210;2023-04-24T11:10:38;10.67;;;5.70;;
2966;SDS011;1493;51.496;7.210;2023-04-24T11:13:06;7.83;;;5.10;;
2966;SDS011;1493;51.496;7.210;2023-04-24T11:15:35;8.80;;;5.87;;
2966;SDS011;1493;51.496;7.210;2023-04-24T11:18:02;11.97;;;7.00;;
2966;SDS011;1493;51.496;7.210;2023-04-24T11:20:29;14.00;;;7.70;;
2966;SDS011;1493;51.496;7.210;2023-04-24T11:22:57;11.93;;;6.93;;
2966;SDS011;1493;51.496;7.210;2023-04-24T11:25:31;13.43;;;7.47;;
2966;SDS011;1493;51.496;7.210;2023-04-24T11:28:07;10.30;;;7.57;;
2966;SDS011;1493;51.496;7.210;2023-04-24T11:30:42;10.77;;;7.10;;
2966;SDS011;1493;51.496;7.210;2023-04-24T11:33:08;12.47;;;7.40;;
2966;SDS011;1493;51.496;7.210;2023-04-24T11:35:36;11.67;;;7.53;;
2966;SDS011;1493;51.496;7.210;2023-04-24T11:38:06;10.93;;;6.63;;
2966;SDS011;1493;51.496;7.210;2023-04-24T11:40:33;12.20;;;7.20;;
2966;SDS011;1493;51.496;7.210;2023-04-24T11:43:00;12.93;;;5.97;;
2966;SDS011;1493;51.496;7.210;2023-04-24T11:45:28;10.10;;;5.43;;
2966;SDS011;1493;51.496;7.210;2023-04-24T11:47:57;16.40;;;6.60;;
2966;SDS011;1493;51.496;7.210;2023-04-24T11:50:28;12.23;;;7.40;;
2966;SDS011;1493;51.496;7.210;2023-04-24T11:52:55;20.53;;;6.50;;
2966;SDS011;1493;51.496;7.210;2023-04-24T11:55:23;9.27;;;5.37;;
2966;SDS011;1493;51.496;7.210;2023-04-24T11:57:52;8.83;;;5.30;;
2966;SDS011;1493;51.496;7.210;2023-04-24T12:00:22;10.10;;;4.87;;
2966;SDS011;1493;51.496;7.210;2023-04-24T12:03:04;7.40;;;5.50;;
2966;SDS011;1493;51.496;7.210;2023-04-24T12:05:32;8.57;;;6.00;;
2966;SDS011;1493;51.496;7.210;2023-04-24T12:07:59;7.77;;;5.50;;
2966;SDS011;1493;51.496;7.210;2023-04-24T12:10:27;7.17;;;4.73;;
2966;SDS011;1493;51.496;7.210;2023-04-24T12:12:56;8.70;;;5.53;;
2966;SDS011;1493;51.496;7.210;2023-04-24T12:15:23;7.60;;;5.00;;
2966;SDS011;1493;51.496;7.210;2023-04-24T12:17:50;8.63;;;4.77;;
2966;SDS011;1493;51.496;7.210;2023-04-24T12:20:23;10.10;;;4.97;;
2966;SDS011;1493;51.496;7.210;2023-04-24T12:22:52;8.70;;;4.50;;
2966;SDS011;1493;51.496;7.210;2023-04-24T12:25:20;7.83;;;4.10;;
2966;SDS011;1493;51.496;7.210;2023-04-24T12:27:52;9.03;;;4.50;;
2966;SDS011;1493;51.496;7.210;2023-04-24T12:30:19;7.23;;;4.20;;
2966;SDS011;1493;51.496;7.210;2023-04-24T12:32:47;5.97;;;3.30;;
2966;SDS011;1493;51.496;7.210;2023-04-24T12:35:18;7.93;;;3.67;;
2966;SDS011;1493;51.496;7.210;2023-04-24T12:37:48;7.70;;;3.23;;
2966;SDS011;1493;51.496;7.210;2023-04-24T12:40:16;3.93;;;2.90;;
2966;SDS011;1493;51.496;7.210;2023-04-24T12:42:44;5.70;;;3.43;;
2966;SDS011;1493;51.496;7.210;2023-04-24T12:45:12;6.43;;;2.83;;
2966;SDS011;1493;51.496;7.210;2023-04-24T12:47:40;7.23;;;4.27;;
2966;SDS011;1493;51.496;7.210;2023-04-24T12:50:08;10.93;;;3.13;;
2966;SDS011;1493;51.496;7.210;2023-04-24T12:52:36;6.90;;;3.67;;
2966;SDS011;1493;51.496;7.210;2023-04-24T12:55:05;11.80;;;4.37;;
2966;SDS011;1493;51.496;7.210;2023-04-24T12:57:34;6.23;;;4.40;;
2966;SDS011;1493;51.496;7.210;2023-04-24T13:00:02;5.83;;;3.80;;
2966;SDS011;1493;51.496;7.210;2023-04-24T13:02:32;7.70;;;3.70;;
2966;SDS011;1493;51.496;7.210;2023-04-24T13:04:59;5.40;;;3.50;;
2966;SDS011;1493;51.496;7.210;2023-04-24T13:07:26;6.97;;;3.20;;
2966;SDS011;1493;51.496;7.210;2023-04-24T13:09:54;4.40;;;3.00;;
2966;SDS011;1493;51.496;7.210;2023-04-24T13:12:23;3.77;;;3.10;;
2966;SDS011;1493;51.496;7.210;2023-04-24T13:14:50;6.40;;;3.67;;
2966;SDS011;1493;51.496;7.210;2023-04-24T13:17:17;4.67;;;2.40;;
2966;SDS011;1493;51.496;7.210;2023-04-24T13:19:44;3.80;;;2.80;;
2966;SDS011;1493;51.496;7.210;2023-04-24T13:22:11;4.17;;;2.90;;
2966;SDS011;1493;51.496;7.210;2023-04-24T13:24:39;3.73;;;2.50;;
2966;SDS011;1493;51.496;7.210;2023-04-24T13:27:06;5.40;;;2.97;;
2966;SDS011;1493;51.496;7.210;2023-04-24T13:29:34;5.13;;;2.50;;
2966;SDS011;1493;51.496;7.210;2023-04-24T13:32:01;4.30;;;2.17;;
2966;SDS011;1493;51.496;7.210;2023-04-24T13:34:28;2.83;;;2.10;;
2966;SDS011;1493;51.496;7.210;2023-04-24T13:36:56;5.83;;;3.27;;
2966;SDS011;1493;51.496;7.210;2023-04-24T13:39:24;2.73;;;1.80;;
2966;SDS011;1493;51.496;7.210;2023-04-24T13:41:51;3.67;;;1.57;;
2966;SDS011;1493;51.496;7.210;2023-04-24T13:44:18;4.63;;;2.20;;
2966;SDS011;1493;51.496;7.210;2023-04-24T13:46:48;2.50;;;1.47;;
2966;SDS011;1493;51.496;7.210;2023-04-24T13:49:16;4.80;;;2.00;;
2966;SDS011;1493;51.496;7.210;2023-04-24T13:51:44;4.60;;;2.17;;
2966;SDS011;1493;51.496;7.210;2023-04-24T13:54:11;3.90;;;1.70;;
2966;SDS011;1493;51.496;7.210;2023-04-24T13:56:38;3.97;;;1.67;;
2966;SDS011;1493;51.496;7.210;2023-04-24T13:59:06;3.47;;;2.47;;
2966;SDS011;1493;51.496;7.210;2023-04-24T14:01:33;4.20;;;2.10;;
2966;SDS011;1493;51.496;7.210;2023-04-24T14:04:01;5.30;;;1.63;;
2966;SDS011;1493;51.496;7.210;2023-04-24T14:06:28;4.80;;;2.23;;
2966;SDS011;1493;51.496;7.210;2023-04-24T14:08:56;4.43;;;1.77;;
2966;SDS011;1493;51.496;7.210;2023-04-24T14:11:23;5.17;;;2.23;;
2966;SDS011;1493;51.496;7.210;2023-04-24T14:13:52;3.23;;;1.70;;
2966;SDS011;1493;51.496;7.210;2023-04-24T14:16:21;3.53;;;1.50;;
2966;SDS011;1493;51.496;7.210;2023-04-24T14:18:48;4.17;;;1.40;;
2966;SDS011;1493;51.496;7.210;2023-04-24T14:21:16;2.27;;;1.30;;
2966;SDS011;1493;51.496;7.210;2023-04-24T14:23:43;4.33;;;1.43;;
2966;SDS011;1493;51.496;7.210;2023-04-24T14:26:10;4.13;;;1.30;;
2966;SDS011;1493;51.496;7.210;2023-04-24T14:28:37;4.03;;;1.53;;
2966;SDS011;1493;51.496;7.210;2023-04-24T14:31:04;1.93;;;1.33;;
2966;SDS011;1493;51.496;7.210;2023-04-24T14:33:31;3.20;;;1.40;;
2966;SDS011;1493;51.496;7.210;2023-04-24T14:35:58;5.17;;;1.50;;
2966;SDS011;1493;51.496;7.210;2023-04-24T14:38:26;2.40;;;1.20;;
2966;SDS011;1493;51.496;7.210;2023-04-24T14:40:53;4.20;;;1.60;;
2966;SDS011;1493;51.496;7.210;2023-04-24T14:43:19;4.53;;;1.40;;
2966;SDS011;1493;51.496;7.210;2023-04-24T14:45:46;4.40;;;2.10;;
2966;SDS011;1493;51.496;7.210;2023-04-24T14:48:13;4.80;;;1.57;;
2966;SDS011;1493;51.496;7.210;2023-04-24T14:50:41;5.70;;;1.93;;
2966;SDS011;1493;51.496;7.210;2023-04-24T14:53:08;8.53;;;2.37;;
2966;SDS011;1493;51.496;7.210;2023-04-24T14:55:36;4.00;;;1.40;;
2966;SDS011;1493;51.496;7.210;2023-04-24T14:58:04;2.70;;;1.53;;
2966;SDS011;1493;51.496;7.210;2023-04-24T15:00:30;2.97;;;1.83;;
2966;SDS011;1493;51.496;7.210;2023-04-24T15:02:57;3.90;;;2.40;;
2966;SDS011;1493;51.496;7.210;2023-04-24T15:05:24;3.93;;;2.07;;
2966;SDS011;1493;51.496;7.210;2023-04-24T15:07:51;4.43;;;2.40;;
2966;SDS011;1493;51.496;7.210;2023-04-24T15:10:18;5.10;;;2.53;;
2966;SDS011;1493;51.496;7.210;2023-04-24T15:12:49;4.60;;;2.40;;
2966;SDS011;1493;51.496;7.210;2023-04-24T15:15:16;4.73;;;2.53;;
2966;SDS011;1493;51.496;7.210;2023-04-24T15:17:43;3.03;;;2.13;;
2966;SDS011;1493;51.496;7.210;2023-04-24T15:20:09;6.30;;;2.80;;
2966;SDS011;1493;51.496;7.210;2023-04-24T15:22:36;4.23;;;2.47;;